sensor_id;sensor_type;location;lat;lon;timestamp;pressure;altitude;pressure_sealevel;temperature;humidity
62057;BME280;48016;50.284;18.860;2022-12-29T00:00:02;98168.89;;;1.70;72.29
62057;BME280;48016;50.284;18.860;2022-12-29T00:02:29;98165.85;;;1.67;72.27
62057;BME280;48016;50.284;18.860;2022-12-29T00:04:56;98167.81;;;1.66;72.16
62057;BME280;48016;50.284;18.860;2022-12-29T00:07:22;98166.38;;;1.65;72.17
62057;BME280;48016;50.284;18.860;2022-12-29T00:09:48;98162.17;;;1.64;72.36
62057;BME280;48016;50.284;18.860;2022-12-29T00:12:14;98155.38;;;1.62;72.39
62057;BME280;48016;50.284;18.860;2022-12-29T00:14:40;98152.95;;;1.60;72.44
62057;BME280;48016;50.284;18.860;2022-12-29T00:17:24;98152.70;;;1.61;72.71
62057;BME280;48016;50.284;18.860;2022-12-29T00:19:50;98153.08;;;1.61;72.89
62057;BME280;48016;50.284;18.860;2022-12-29T00:22:35;98161.08;;;1.62;72.90
62057;BME280;48016;50.284;18.860;2022-12-29T00:25:20;98157.59;;;1.64;72.95
62057;BME280;48016;50.284;18.860;2022-12-29T00:28:10;98155.14;;;1.66;72.90
62057;BME280;48016;50.284;18.860;2022-12-29T00:30:59;98148.76;;;1.69;72.89
62057;BME280;48016;50.284;18.860;2022-12-29T00:33:44;98148.27;;;1.70;72.88
62057;BME280;48016;50.284;18.860;2022-12-29T00:36:35;98137.48;;;1.71;72.72
62057;BME280;48016;50.284;18.860;2022-12-29T00:39:06;98130.55;;;1.70;72.68
62057;BME280;48016;50.284;18.860;2022-12-29T00:41:52;98124.77;;;1.68;72.48
62057;BME280;48016;50.284;18.860;2022-12-29T00:44:36;98114.15;;;1.66;72.49
62057;BME280;48016;50.284;18.860;2022-12-29T00:47:03;98112.83;;;1.64;72.55
62057;BME280;48016;50.284;18.860;2022-12-29T00:49:30;98110.04;;;1.62;72.66
62057;BME280;48016;50.284;18.860;2022-12-29T00:52:02;98115.92;;;1.61;72.65
62057;BME280;48016;50.284;18.860;2022-12-29T00:54:31;98115.85;;;1.60;72.69
62057;BME280;48016;50.284;18.860;2022-12-29T00:56:57;98116.84;;;1.61;72.80
62057;BME280;48016;50.284;18.860;2022-12-29T00:59:23;98115.61;;;1.61;72.93
62057;BME280;48016;50.284;18.860;2022-12-29T01:01:51;98117.73;;;1.61;73.05
62057;BME280;48016;50.284;18.860;2022-12-29T01:04:19;98122.74;;;1.63;73.14
62057;BME280;48016;50.284;18.860;2022-12-29T01:06:45;98122.51;;;1.66;73.24
62057;BME280;48016;50.284;18.860;2022-12-29T01:09:12;98118.70;;;1.69;73.34
62057;BME280;48016;50.284;18.860;2022-12-29T01:11:56;98121.33;;;1.72;73.32
62057;BME280;48016;50.284;18.860;2022-12-29T01:14:23;98119.48;;;1.74;73.38
62057;BME280;48016;50.284;18.860;2022-12-29T01:16:50;98109.31;;;1.76;73.25
62057;BME280;48016;50.284;18.860;2022-12-29T01:19:17;98109.81;;;1.74;73.12
62057;BME280;48016;50.284;18.860;2022-12-29T01:21:44;98108.17;;;1.74;73.01
62057;BME280;48016;50.284;18.860;2022-12-29T01:24:10;98114.02;;;1.70;73.09
62057;BME280;48016;50.284;18.860;2022-12-29T01:26:36;98120.05;;;1.68;73.03
62057;BME280;48016;50.284;18.860;2022-12-29T01:29:02;98122.80;;;1.68;72.94
62057;BME280;48016;50.284;18.860;2022-12-29T01:31:28;98124.06;;;1.68;72.99
62057;BME280;48016;50.284;18.860;2022-12-29T01:33:54;98125.55;;;1.69;72.99
62057;BME280;48016;50.284;18.860;2022-12-29T01:36:20;98129.52;;;1.69;72.91
62057;BME280;48016;50.284;18.860;2022-12-29T01:38:46;98139.58;;;1.71;72.93
62057;BME280;48016;50.284;18.860;2022-12-29T01:41:14;98136.29;;;1.74;73.12
62057;BME280;48016;50.284;18.860;2022-12-29T01:43:56;98134.79;;;1.80;73.39
62057;BME280;48016;50.284;18.860;2022-12-29T01:46:35;98136.90;;;1.88;73.29
62057;BME280;48016;50.284;18.860;2022-12-29T01:49:14;98132.19;;;1.94;73.50
62057;BME280;48016;50.284;18.860;2022-12-29T01:51:55;98130.76;;;1.99;73.52
62057;BME280;48016;50.284;18.860;2022-12-29T01:54:33;98124.80;;;2.01;73.25
62057;BME280;48016;50.284;18.860;2022-12-29T01:57:04;98127.84;;;2.04;73.15
62057;BME280;48016;50.284;18.860;2022-12-29T01:59:38;98121.33;;;2.06;73.16
62057;BME280;48016;50.284;18.860;2022-12-29T02:02:05;98111.31;;;2.06;73.00
62057;BME280;48016;50.284;18.860;2022-12-29T02:04:33;98108.35;;;2.06;72.81
62057;BME280;48016;50.284;18.860;2022-12-29T02:07:23;98096.01;;;2.06;72.95
62057;BME280;48016;50.284;18.860;2022-12-29T02:09:50;98084.77;;;2.05;72.98
62057;BME280;48016;50.284;18.860;2022-12-29T02:12:18;98083.49;;;2.04;72.77
62057;BME280;48016;50.284;18.860;2022-12-29T02:14:45;98088.55;;;2.04;72.78
62057;BME280;48016;50.284;18.860;2022-12-29T02:31:21;98094.83;;;2.03;72.85
62057;BME280;48016;50.284;18.860;2022-12-29T02:39:29;98094.90;;;2.04;73.28
62057;BME280;48016;50.284;18.860;2022-12-29T02:42:05;98095.96;;;2.08;73.26
62057;BME280;48016;50.284;18.860;2022-12-29T02:47:14;98089.81;;;2.15;73.37
62057;BME280;48016;50.284;18.860;2022-12-29T02:49:54;98086.09;;;2.18;73.08
62057;BME280;48016;50.284;18.860;2022-12-29T02:52:27;98087.63;;;2.20;73.08
62057;BME280;48016;50.284;18.860;2022-12-29T02:54:56;98082.35;;;2.20;72.85
62057;BME280;48016;50.284;18.860;2022-12-29T02:59:52;98087.80;;;2.17;72.56
62057;BME280;48016;50.284;18.860;2022-12-29T03:07:50;98072.34;;;2.12;72.68
62057;BME280;48016;50.284;18.860;2022-12-29T03:15:51;98060.56;;;2.02;72.47
62057;BME280;48016;50.284;18.860;2022-12-29T03:21:05;98053.72;;;1.96;72.49
62057;BME280;48016;50.284;18.860;2022-12-29T03:23:34;98055.88;;;1.94;72.54
62057;BME280;48016;50.284;18.860;2022-12-29T03:26:05;98061.66;;;1.93;72.55
62057;BME280;48016;50.284;18.860;2022-12-29T03:28:36;98062.66;;;1.94;72.59
62057;BME280;48016;50.284;18.860;2022-12-29T03:31:06;98064.96;;;1.95;72.78
62057;BME280;48016;50.284;18.860;2022-12-29T03:33:35;98067.09;;;1.96;72.81
62057;BME280;48016;50.284;18.860;2022-12-29T03:36:04;98063.93;;;1.98;72.83
62057;BME280;48016;50.284;18.860;2022-12-29T03:41:05;98052.89;;;2.02;72.87
62057;BME280;48016;50.284;18.860;2022-12-29T03:43:33;98055.69;;;2.03;73.02
62057;BME280;48016;50.284;18.860;2022-12-29T03:45:59;98054.98;;;2.03;72.89
62057;BME280;48016;50.284;18.860;2022-12-29T03:48:25;98037.71;;;2.03;72.77
62057;BME280;48016;50.284;18.860;2022-12-29T03:50:51;98023.28;;;2.03;72.60
62057;BME280;48016;50.284;18.860;2022-12-29T03:53:17;98017.16;;;2.02;72.45
62057;BME280;48016;50.284;18.860;2022-12-29T03:55:43;98018.41;;;2.01;72.46
62057;BME280;48016;50.284;18.860;2022-12-29T03:58:09;98025.25;;;1.98;72.46
62057;BME280;48016;50.284;18.860;2022-12-29T04:00:35;98032.19;;;1.96;72.31
62057;BME280;48016;50.284;18.860;2022-12-29T04:03:01;98024.23;;;1.92;72.27
62057;BME280;48016;50.284;18.860;2022-12-29T04:05:28;98018.91;;;1.88;72.35
62057;BME280;48016;50.284;18.860;2022-12-29T04:07:54;98016.77;;;1.85;72.35
62057;BME280;48016;50.284;18.860;2022-12-29T04:10:20;98020.70;;;1.82;72.48
62057;BME280;48016;50.284;18.860;2022-12-29T04:12:46;98019.89;;;1.80;72.51
62057;BME280;48016;50.284;18.860;2022-12-29T04:15:12;98020.59;;;1.79;72.84
62057;BME280;48016;50.284;18.860;2022-12-29T04:17:38;98013.41;;;1.79;72.80
62057;BME280;48016;50.284;18.860;2022-12-29T04:20:05;98015.63;;;1.79;73.05
62057;BME280;48016;50.284;18.860;2022-12-29T04:23:03;98017.55;;;1.78;73.03
62057;BME280;48016;50.284;18.860;2022-12-29T04:25:31;98011.10;;;1.75;73.20
62057;BME280;48016;50.284;18.860;2022-12-29T04:27:57;98014.56;;;1.72;73.00
62057;BME280;48016;50.284;18.860;2022-12-29T04:30:23;98005.46;;;1.71;73.05
62057;BME280;48016;50.284;18.860;2022-12-29T04:32:49;98000.73;;;1.69;73.09
62057;BME280;48016;50.284;18.860;2022-12-29T04:35:16;98000.41;;;1.68;72.78
62057;BME280;48016;50.284;18.860;2022-12-29T04:37:42;97995.58;;;1.65;73.12
62057;BME280;48016;50.284;18.860;2022-12-29T04:40:09;97991.81;;;1.63;73.09
62057;BME280;48016;50.284;18.860;2022-12-29T04:42:35;97994.92;;;1.61;73.02
62057;BME280;48016;50.284;18.860;2022-12-29T04:45:01;97999.27;;;1.61;73.28
62057;BME280;48016;50.284;18.860;2022-12-29T04:47:28;98000.82;;;1.61;73.26
62057;BME280;48016;50.284;18.860;2022-12-29T04:49:54;98000.70;;;1.62;73.37
62057;BME280;48016;50.284;18.860;2022-12-29T04:52:20;98004.67;;;1.63;73.55
62057;BME280;48016;50.284;18.860;2022-12-29T04:54:46;97998.81;;;1.64;73.48
62057;BME280;48016;50.284;18.860;2022-12-29T04:57:12;97998.79;;;1.65;73.63
62057;BME280;48016;50.284;18.860;2022-12-29T04:59:38;97993.60;;;1.65;73.64
62057;BME280;48016;50.284;18.860;2022-12-29T05:02:04;97987.78;;;1.66;73.81
62057;BME280;48016;50.284;18.860;2022-12-29T05:04:30;97988.80;;;1.67;73.67
62057;BME280;48016;50.284;18.860;2022-12-29T05:06:56;97983.65;;;1.68;73.80
62057;BME280;48016;50.284;18.860;2022-12-29T05:09:22;97987.16;;;1.70;73.82
62057;BME280;48016;50.284;18.860;2022-12-29T05:11:49;97995.11;;;1.70;73.75
62057;BME280;48016;50.284;18.860;2022-12-29T05:14:15;98000.54;;;1.70;73.64
62057;BME280;48016;50.284;18.860;2022-12-29T05:16:41;98000.86;;;1.68;73.67
62057;BME280;48016;50.284;18.860;2022-12-29T05:19:07;98003.58;;;1.67;73.66
62057;BME280;48016;50.284;18.860;2022-12-29T05:21:33;98005.37;;;1.64;73.72
62057;BME280;48016;50.284;18.860;2022-12-29T05:23:59;98000.29;;;1.61;73.76
62057;BME280;48016;50.284;18.860;2022-12-29T05:26:25;97992.91;;;1.57;73.68
62057;BME280;48016;50.284;18.860;2022-12-29T05:28:52;97992.46;;;1.54;73.58
62057;BME280;48016;50.284;18.860;2022-12-29T05:31:17;97990.33;;;1.50;73.55
62057;BME280;48016;50.284;18.860;2022-12-29T05:33:43;97983.31;;;1.47;73.65
62057;BME280;48016;50.284;18.860;2022-12-29T05:36:10;97981.10;;;1.45;73.78
62057;BME280;48016;50.284;18.860;2022-12-29T05:38:36;97983.06;;;1.43;73.90
62057;BME280;48016;50.284;18.860;2022-12-29T05:41:02;97984.53;;;1.42;74.14
62057;BME280;48016;50.284;18.860;2022-12-29T05:43:28;97983.96;;;1.41;74.13
62057;BME280;48016;50.284;18.860;2022-12-29T05:45:54;97980.69;;;1.40;74.26
62057;BME280;48016;50.284;18.860;2022-12-29T05:48:21;97977.60;;;1.39;74.39
62057;BME280;48016;50.284;18.860;2022-12-29T05:50:48;97980.40;;;1.40;74.52
62057;BME280;48016;50.284;18.860;2022-12-29T05:53:15;97981.83;;;1.42;74.74
62057;BME280;48016;50.284;18.860;2022-12-29T05:55:41;97981.96;;;1.45;74.75
62057;BME280;48016;50.284;18.860;2022-12-29T05:58:07;97979.29;;;1.49;74.87
62057;BME280;48016;50.284;18.860;2022-12-29T06:00:33;97977.87;;;1.53;74.98
62057;BME280;48016;50.284;18.860;2022-12-29T06:02:59;97972.73;;;1.58;74.89
62057;BME280;48016;50.284;18.860;2022-12-29T06:05:25;97970.11;;;1.63;74.92
62057;BME280;48016;50.284;18.860;2022-12-29T06:07:51;97968.70;;;1.67;74.95
62057;BME280;48016;50.284;18.860;2022-12-29T06:10:17;97965.48;;;1.72;75.11
62057;BME280;48016;50.284;18.860;2022-12-29T06:12:43;97958.96;;;1.78;75.03
62057;BME280;48016;50.284;18.860;2022-12-29T06:15:10;97958.58;;;1.85;74.96
62057;BME280;48016;50.284;18.860;2022-12-29T06:17:36;97956.23;;;1.87;74.75
62057;BME280;48016;50.284;18.860;2022-12-29T06:20:03;97949.30;;;1.90;74.62
62057;BME280;48016;50.284;18.860;2022-12-29T06:22:29;97942.08;;;1.92;74.52
62057;BME280;48016;50.284;18.860;2022-12-29T06:24:55;97934.08;;;1.93;74.51
62057;BME280;48016;50.284;18.860;2022-12-29T06:27:21;97936.33;;;1.95;74.51
62057;BME280;48016;50.284;18.860;2022-12-29T06:29:47;97941.02;;;1.97;74.41
62057;BME280;48016;50.284;18.860;2022-12-29T06:32:13;97938.98;;;2.00;74.62
62057;BME280;48016;50.284;18.860;2022-12-29T06:34:39;97939.39;;;2.04;74.69
62057;BME280;48016;50.284;18.860;2022-12-29T06:37:05;97948.58;;;2.09;74.63
62057;BME280;48016;50.284;18.860;2022-12-29T06:39:31;97963.77;;;2.13;74.64
62057;BME280;48016;50.284;18.860;2022-12-29T06:41:57;97967.20;;;2.17;74.58
62057;BME280;48016;50.284;18.860;2022-12-29T06:44:23;97959.23;;;2.22;74.69
62057;BME280;48016;50.284;18.860;2022-12-29T06:46:49;97954.05;;;2.28;74.73
62057;BME280;48016;50.284;18.860;2022-12-29T06:49:16;97956.20;;;2.33;74.55
62057;BME280;48016;50.284;18.860;2022-12-29T06:51:42;97955.55;;;2.35;74.45
62057;BME280;48016;50.284;18.860;2022-12-29T06:54:08;97953.45;;;2.38;74.24
62057;BME280;48016;50.284;18.860;2022-12-29T06:56:34;97950.11;;;2.40;74.11
62057;BME280;48016;50.284;18.860;2022-12-29T06:59:00;97940.61;;;2.43;74.06
62057;BME280;48016;50.284;18.860;2022-12-29T07:01:27;97943.48;;;2.44;73.93
62057;BME280;48016;50.284;18.860;2022-12-29T07:03:53;97939.62;;;2.46;73.96
62057;BME280;48016;50.284;18.860;2022-12-29T07:06:19;97938.70;;;2.48;73.95
62057;BME280;48016;50.284;18.860;2022-12-29T07:08:45;97946.45;;;2.51;73.94
62057;BME280;48016;50.284;18.860;2022-12-29T07:11:11;97955.02;;;2.54;73.96
62057;BME280;48016;50.284;18.860;2022-12-29T07:13:37;97965.27;;;2.57;73.98
62057;BME280;48016;50.284;18.860;2022-12-29T07:16:09;97962.09;;;2.62;74.08
62057;BME280;48016;50.284;18.860;2022-12-29T07:18:36;97965.30;;;2.67;74.10
62057;BME280;48016;50.284;18.860;2022-12-29T07:21:02;97961.46;;;2.72;74.00
62057;BME280;48016;50.284;18.860;2022-12-29T07:23:28;97967.69;;;2.78;74.07
62057;BME280;48016;50.284;18.860;2022-12-29T07:26:02;97966.71;;;2.83;74.14
62057;BME280;48016;50.284;18.860;2022-12-29T07:28:29;97968.63;;;2.89;74.14
62057;BME280;48016;50.284;18.860;2022-12-29T07:30:55;97975.33;;;2.93;73.80
62057;BME280;48016;50.284;18.860;2022-12-29T07:33:21;97974.36;;;2.97;73.70
62057;BME280;48016;50.284;18.860;2022-12-29T07:35:47;97973.77;;;3.02;73.55
62057;BME280;48016;50.284;18.860;2022-12-29T07:38:14;97978.80;;;3.05;73.38
62057;BME280;48016;50.284;18.860;2022-12-29T07:40:40;97979.27;;;3.09;73.29
62057;BME280;48016;50.284;18.860;2022-12-29T07:43:06;97972.96;;;3.11;73.10
62057;BME280;48016;50.284;18.860;2022-12-29T07:45:32;97965.64;;;3.12;72.87
62057;BME280;48016;50.284;18.860;2022-12-29T07:47:58;97965.27;;;3.14;72.91
62057;BME280;48016;50.284;18.860;2022-12-29T07:50:25;97966.45;;;3.14;72.75
62057;BME280;48016;50.284;18.860;2022-12-29T07:52:50;97967.23;;;3.15;72.65
62057;BME280;48016;50.284;18.860;2022-12-29T07:55:16;97962.59;;;3.15;72.62
62057;BME280;48016;50.284;18.860;2022-12-29T07:57:42;97952.95;;;3.16;72.73
62057;BME280;48016;50.284;18.860;2022-12-29T08:00:10;97950.31;;;3.21;72.72
62057;BME280;48016;50.284;18.860;2022-12-29T08:02:36;97954.58;;;3.25;72.81
62057;BME280;48016;50.284;18.860;2022-12-29T08:05:02;97956.11;;;3.32;72.86
62057;BME280;48016;50.284;18.860;2022-12-29T08:07:28;97959.27;;;3.41;72.86
62057;BME280;48016;50.284;18.860;2022-12-29T08:09:55;97967.96;;;3.50;72.63
62057;BME280;48016;50.284;18.860;2022-12-29T08:12:21;97968.54;;;3.56;72.34
62057;BME280;48016;50.284;18.860;2022-12-29T08:14:48;97961.96;;;3.60;72.24
62057;BME280;48016;50.284;18.860;2022-12-29T08:17:15;97954.25;;;3.63;72.02
62057;BME280;48016;50.284;18.860;2022-12-29T08:19:41;97958.84;;;3.66;71.84
62057;BME280;48016;50.284;18.860;2022-12-29T08:22:08;97963.15;;;3.67;71.81
62057;BME280;48016;50.284;18.860;2022-12-29T08:24:34;97967.30;;;3.68;71.71
62057;BME280;48016;50.284;18.860;2022-12-29T08:27:00;97959.34;;;3.71;71.66
62057;BME280;48016;50.284;18.860;2022-12-29T08:29:28;97956.88;;;3.78;71.61
62057;BME280;48016;50.284;18.860;2022-12-29T08:31:54;97957.61;;;3.79;71.49
62057;BME280;48016;50.284;18.860;2022-12-29T08:34:20;97965.09;;;3.80;71.50
62057;BME280;48016;50.284;18.860;2022-12-29T08:36:47;97961.36;;;3.83;71.32
62057;BME280;48016;50.284;18.860;2022-12-29T08:39:13;97966.77;;;3.85;71.08
62057;BME280;48016;50.284;18.860;2022-12-29T08:41:40;97969.42;;;3.88;71.12
62057;BME280;48016;50.284;18.860;2022-12-29T08:44:06;97975.09;;;3.93;71.07
62057;BME280;48016;50.284;18.860;2022-12-29T08:46:32;97967.94;;;4.00;71.15
62057;BME280;48016;50.284;18.860;2022-12-29T08:48:59;97966.76;;;4.07;71.04
62057;BME280;48016;50.284;18.860;2022-12-29T08:51:25;97967.71;;;4.16;71.36
62057;BME280;48016;50.284;18.860;2022-12-29T08:53:51;97968.19;;;4.26;71.31
62057;BME280;48016;50.284;18.860;2022-12-29T08:56:18;97975.63;;;4.38;71.41
62057;BME280;48016;50.284;18.860;2022-12-29T08:58:44;97974.10;;;4.49;71.36
62057;BME280;48016;50.284;18.860;2022-12-29T09:01:10;97976.36;;;4.61;71.24
62057;BME280;48016;50.284;18.860;2022-12-29T09:03:36;97979.60;;;4.71;70.79
62057;BME280;48016;50.284;18.860;2022-12-29T09:06:02;97979.96;;;4.82;70.70
62057;BME280;48016;50.284;18.860;2022-12-29T09:08:29;97980.33;;;4.92;70.22
62057;BME280;48016;50.284;18.860;2022-12-29T09:10:55;97982.67;;;5.02;70.16
62057;BME280;48016;50.284;18.860;2022-12-29T09:13:21;97982.91;;;5.14;70.03
62057;BME280;48016;50.284;18.860;2022-12-29T09:15:47;97984.52;;;5.24;69.67
62057;BME280;48016;50.284;18.860;2022-12-29T09:18:13;97982.77;;;5.33;69.77
62057;BME280;48016;50.284;18.860;2022-12-29T09:20:39;97973.26;;;5.41;69.49
62057;BME280;48016;50.284;18.860;2022-12-29T09:23:06;97973.02;;;5.49;69.26
62057;BME280;48016;50.284;18.860;2022-12-29T09:25:32;97971.85;;;5.54;68.83
62057;BME280;48016;50.284;18.860;2022-12-29T09:27:58;97970.85;;;5.60;68.59
62057;BME280;48016;50.284;18.860;2022-12-29T09:30:24;97969.50;;;5.67;68.39
62057;BME280;48016;50.284;18.860;2022-12-29T09:32:50;97969.29;;;5.78;68.19
62057;BME280;48016;50.284;18.860;2022-12-29T09:35:16;97973.10;;;5.84;68.10
62057;BME280;48016;50.284;18.860;2022-12-29T09:37:43;97968.47;;;5.89;67.75
62057;BME280;48016;50.284;18.860;2022-12-29T09:40:24;97964.90;;;5.96;67.95
62057;BME280;48016;50.284;18.860;2022-12-29T09:45:55;97962.17;;;6.18;67.69
62057;BME280;48016;50.284;18.860;2022-12-29T09:48:29;97966.16;;;6.25;67.65
62057;BME280;48016;50.284;18.860;2022-12-29T09:51:00;97959.05;;;6.30;67.56
62057;BME280;48016;50.284;18.860;2022-12-29T09:53:43;97961.31;;;6.27;67.31
62057;BME280;48016;50.284;18.860;2022-12-29T09:56:16;97956.27;;;6.25;66.95
62057;BME280;48016;50.284;18.860;2022-12-29T09:59:08;97950.84;;;6.25;67.32
62057;BME280;48016;50.284;18.860;2022-12-29T10:04:12;97939.40;;;6.27;67.04
62057;BME280;48016;50.284;18.860;2022-12-29T10:06:54;97943.36;;;6.29;67.18
62057;BME280;48016;50.284;18.860;2022-12-29T10:24:52;97927.23;;;6.20;66.93
62057;BME280;48016;50.284;18.860;2022-12-29T10:27:22;97927.48;;;6.20;67.08
62057;BME280;48016;50.284;18.860;2022-12-29T10:29:58;97917.59;;;6.19;66.87
62057;BME280;48016;50.284;18.860;2022-12-29T10:33:00;97919.52;;;6.17;67.04
62057;BME280;48016;50.284;18.860;2022-12-29T10:35:37;97909.98;;;6.15;66.96
62057;BME280;48016;50.284;18.860;2022-12-29T10:38:17;97910.92;;;6.16;67.14
62057;BME280;48016;50.284;18.860;2022-12-29T10:41:17;97910.81;;;6.21;67.12
62057;BME280;48016;50.284;18.860;2022-12-29T10:43:51;97909.11;;;6.24;66.88
62057;BME280;48016;50.284;18.860;2022-12-29T10:46:34;97914.58;;;6.27;66.97
62057;BME280;48016;50.284;18.860;2022-12-29T10:49:01;97919.70;;;6.27;66.71
62057;BME280;48016;50.284;18.860;2022-12-29T10:51:31;97912.33;;;6.29;66.78
62057;BME280;48016;50.284;18.860;2022-12-29T10:54:04;97912.65;;;6.29;66.68
62057;BME280;48016;50.284;18.860;2022-12-29T10:56:39;97915.86;;;6.31;66.79
62057;BME280;48016;50.284;18.860;2022-12-29T10:59:19;97916.08;;;6.33;66.73
62057;BME280;48016;50.284;18.860;2022-12-29T11:07:08;97916.59;;;6.43;66.72
62057;BME280;48016;50.284;18.860;2022-12-29T11:09:36;97918.48;;;6.45;66.86
62057;BME280;48016;50.284;18.860;2022-12-29T11:12:23;97911.34;;;6.49;67.00
62057;BME280;48016;50.284;18.860;2022-12-29T11:15:15;97913.45;;;6.55;67.03
62057;BME280;48016;50.284;18.860;2022-12-29T11:17:49;97906.79;;;6.60;66.92
62057;BME280;48016;50.284;18.860;2022-12-29T11:20:38;97906.45;;;6.65;66.88
62057;BME280;48016;50.284;18.860;2022-12-29T11:23:24;97909.71;;;6.78;66.79
62057;BME280;48016;50.284;18.860;2022-12-29T11:28:39;97912.18;;;6.90;66.71
62057;BME280;48016;50.284;18.860;2022-12-29T11:31:07;97912.33;;;6.95;66.59
62057;BME280;48016;50.284;18.860;2022-12-29T11:33:36;97917.59;;;6.98;66.40
62057;BME280;48016;50.284;18.860;2022-12-29T11:36:05;97916.89;;;7.01;66.23
62057;BME280;48016;50.284;18.860;2022-12-29T11:38:40;97914.33;;;7.04;66.09
62057;BME280;48016;50.284;18.860;2022-12-29T11:41:12;97911.83;;;7.06;66.22
62057;BME280;48016;50.284;18.860;2022-12-29T11:43:42;97912.17;;;7.08;66.01
62057;BME280;48016;50.284;18.860;2022-12-29T11:46:22;97911.43;;;7.08;65.93
62057;BME280;48016;50.284;18.860;2022-12-29T11:48:50;97908.77;;;7.09;65.93
62057;BME280;48016;50.284;18.860;2022-12-29T11:51:33;97910.49;;;7.10;65.92
62057;BME280;48016;50.284;18.860;2022-12-29T11:54:03;97911.53;;;7.11;65.83
62057;BME280;48016;50.284;18.860;2022-12-29T11:56:39;97906.70;;;7.11;65.84
62057;BME280;48016;50.284;18.860;2022-12-29T12:02:30;97907.92;;;7.13;65.81
62057;BME280;48016;50.284;18.860;2022-12-29T12:05:03;97906.73;;;7.15;65.78
62057;BME280;48016;50.284;18.860;2022-12-29T12:07:41;97910.86;;;7.18;65.82
62057;BME280;48016;50.284;18.860;2022-12-29T12:10:58;97913.66;;;7.22;65.63
62057;BME280;48016;50.284;18.860;2022-12-29T12:14:04;97912.30;;;7.27;65.78
62057;BME280;48016;50.284;18.860;2022-12-29T12:16:48;97911.60;;;7.33;65.66
62057;BME280;48016;50.284;18.860;2022-12-29T12:24:55;97911.20;;;7.41;65.28
62057;BME280;48016;50.284;18.860;2022-12-29T12:27:33;97908.14;;;7.45;65.31
62057;BME280;48016;50.284;18.860;2022-12-29T12:30:19;97903.80;;;7.46;65.49
62057;BME280;48016;50.284;18.860;2022-12-29T12:46:34;97873.86;;;7.24;66.14
62057;BME280;48016;50.284;18.860;2022-12-29T12:59:58;97879.14;;;7.29;66.56
62057;BME280;48016;50.284;18.860;2022-12-29T13:08:42;97881.75;;;7.34;66.57
62057;BME280;48016;50.284;18.860;2022-12-29T13:22:04;97878.76;;;7.48;66.20
62057;BME280;48016;50.284;18.860;2022-12-29T13:27:35;97871.10;;;7.53;66.21
62057;BME280;48016;50.284;18.860;2022-12-29T13:30:14;97868.16;;;7.55;66.18
62057;BME280;48016;50.284;18.860;2022-12-29T13:33:00;97868.40;;;7.57;66.07
62057;BME280;48016;50.284;18.860;2022-12-29T13:38:12;97864.48;;;7.53;66.04
62057;BME280;48016;50.284;18.860;2022-12-29T13:40:45;97866.19;;;7.53;66.02
62057;BME280;48016;50.284;18.860;2022-12-29T13:43:13;97873.73;;;7.54;65.87
62057;BME280;48016;50.284;18.860;2022-12-29T13:45:42;97876.02;;;7.55;65.87
62057;BME280;48016;50.284;18.860;2022-12-29T13:48:21;97885.27;;;7.54;66.02
62057;BME280;48016;50.284;18.860;2022-12-29T13:50:55;97879.56;;;7.51;65.94
62057;BME280;48016;50.284;18.860;2022-12-29T13:53:33;97879.75;;;7.46;65.86
62057;BME280;48016;50.284;18.860;2022-12-29T13:56:09;97878.06;;;7.41;66.01
62057;BME280;48016;50.284;18.860;2022-12-29T14:01:56;97880.17;;;7.32;66.32
62057;BME280;48016;50.284;18.860;2022-12-29T14:04:29;97882.92;;;7.26;66.47
62057;BME280;48016;50.284;18.860;2022-12-29T14:07:04;97879.20;;;7.21;66.56
62057;BME280;48016;50.284;18.860;2022-12-29T14:12:30;97883.90;;;7.11;66.77
62057;BME280;48016;50.284;18.860;2022-12-29T14:15:19;97884.17;;;7.05;67.11
62057;BME280;48016;50.284;18.860;2022-12-29T14:20:27;97884.88;;;6.96;67.98
62057;BME280;48016;50.284;18.860;2022-12-29T14:23:17;97888.61;;;6.92;67.97
62057;BME280;48016;50.284;18.860;2022-12-29T14:33:33;97884.55;;;6.77;68.14
62057;BME280;48016;50.284;18.860;2022-12-29T14:36:21;97886.27;;;6.72;68.17
62057;BME280;48016;50.284;18.860;2022-12-29T14:38:50;97884.70;;;6.65;68.32
62057;BME280;48016;50.284;18.860;2022-12-29T14:41:24;97878.95;;;6.60;68.30
62057;BME280;48016;50.284;18.860;2022-12-29T14:44:28;97875.11;;;6.51;68.49
62057;BME280;48016;50.284;18.860;2022-12-29T14:49:31;97875.65;;;6.37;68.88
62057;BME280;48016;50.284;18.860;2022-12-29T14:54:46;97878.59;;;6.30;69.27
62057;BME280;48016;50.284;18.860;2022-12-29T14:57:39;97878.48;;;6.30;69.51
62057;BME280;48016;50.284;18.860;2022-12-29T15:02:42;97877.01;;;6.32;70.34
62057;BME280;48016;50.284;18.860;2022-12-29T15:05:34;97880.35;;;6.33;70.59
62057;BME280;48016;50.284;18.860;2022-12-29T15:08:02;97895.27;;;6.32;70.49
62057;BME280;48016;50.284;18.860;2022-12-29T15:10:36;97898.85;;;6.34;70.50
62057;BME280;48016;50.284;18.860;2022-12-29T15:13:05;97897.36;;;6.36;70.46
62057;BME280;48016;50.284;18.860;2022-12-29T15:15:38;97897.63;;;6.35;70.38
62057;BME280;48016;50.284;18.860;2022-12-29T15:18:31;97894.11;;;6.33;70.32
62057;BME280;48016;50.284;18.860;2022-12-29T15:21:05;97899.76;;;6.31;70.33
62057;BME280;48016;50.284;18.860;2022-12-29T15:23:34;97898.33;;;6.30;70.59
62057;BME280;48016;50.284;18.860;2022-12-29T15:26:05;97892.90;;;6.29;70.66
62057;BME280;48016;50.284;18.860;2022-12-29T15:28:44;97887.77;;;6.28;70.76
62057;BME280;48016;50.284;18.860;2022-12-29T15:33:40;97885.69;;;6.26;70.63
62057;BME280;48016;50.284;18.860;2022-12-29T15:36:19;97884.30;;;6.26;70.89
62057;BME280;48016;50.284;18.860;2022-12-29T15:38:45;97883.92;;;6.26;71.15
62057;BME280;48016;50.284;18.860;2022-12-29T15:41:42;97885.46;;;6.25;71.33
62057;BME280;48016;50.284;18.860;2022-12-29T15:44:42;97888.85;;;6.25;71.46
62057;BME280;48016;50.284;18.860;2022-12-29T15:47:16;97890.60;;;6.25;71.56
62057;BME280;48016;50.284;18.860;2022-12-29T15:49:44;97887.77;;;6.23;71.70
62057;BME280;48016;50.284;18.860;2022-12-29T15:52:18;97888.44;;;6.21;71.79